sensor_id;sensor_type;location;lat;lon;timestamp;P1;durP1;ratioP1;P2;durP2;ratioP2
74503;SDS011;62988;55.776;37.544;2022-11-23T00:00:45;4.97;;;2.23;;
74503;SDS011;62988;55.776;37.544;2022-11-23T00:03:13;4.23;;;2.03;;
74503;SDS011;62988;55.776;37.544;2022-11-23T00:05:38;3.92;;;1.65;;
74503;SDS011;62988;55.776;37.544;2022-11-23T00:08:04;3.30;;;1.37;;
74503;SDS011;62988;55.776;37.544;2022-11-23T00:10:29;3.65;;;1.92;;
74503;SDS011;62988;55.776;37.544;2022-11-23T00:12:54;5.87;;;2.10;;
74503;SDS011;62988;55.776;37.544;2022-11-23T00:15:20;5.37;;;2.20;;
74503;SDS011;62988;55.776;37.544;2022-11-23T00:17:48;4.35;;;2.00;;
74503;SDS011;62988;55.776;37.544;2022-11-23T00:20:13;5.13;;;1.90;;
74503;SDS011;62988;55.776;37.544;2022-11-23T00:22:39;3.40;;;1.70;;
74503;SDS011;62988;55.776;37.544;2022-11-23T00:25:04;4.07;;;1.90;;
74503;SDS011;62988;55.776;37.544;2022-11-23T00:27:30;4.63;;;2.00;;
74503;SDS011;62988;55.776;37.544;2022-11-23T00:29:55;4.20;;;2.33;;
74503;SDS011;62988;55.776;37.544;2022-11-23T00:32:20;3.50;;;1.53;;
74503;SDS011;62988;55.776;37.544;2022-11-23T00:34:46;3.47;;;1.97;;
74503;SDS011;62988;55.776;37.544;2022-11-23T00:37:11;3.23;;;1.57;;
74503;SDS011;62988;55.776;37.544;2022-11-23T00:39:36;3.77;;;1.70;;
74503;SDS011;62988;55.776;37.544;2022-11-23T00:42:02;3.40;;;1.80;;
74503;SDS011;62988;55.776;37.544;2022-11-23T00:44:27;4.35;;;2.00;;
74503;SDS011;62988;55.776;37.544;2022-11-23T00:46:52;4.00;;;1.92;;
74503;SDS011;62988;55.776;37.544;2022-11-23T00:49:18;5.77;;;1.83;;
74503;SDS011;62988;55.776;37.544;2022-11-23T00:51:43;3.50;;;1.67;;
74503;SDS011;62988;55.776;37.544;2022-11-23T00:54:08;4.43;;;1.67;;
74503;SDS011;62988;55.776;37.544;2022-11-23T00:56:34;3.87;;;1.93;;
74503;SDS011;62988;55.776;37.544;2022-11-23T00:59:00;3.05;;;1.70;;
74503;SDS011;62988;55.776;37.544;2022-11-23T01:01:26;3.60;;;1.48;;
74503;SDS011;62988;55.776;37.544;2022-11-23T01:03:53;5.20;;;1.83;;
74503;SDS011;62988;55.776;37.544;2022-11-23T01:06:20;3.83;;;1.60;;
74503;SDS011;62988;55.776;37.544;2022-11-23T01:08:49;3.42;;;1.70;;
74503;SDS011;62988;55.776;37.544;2022-11-23T01:11:15;2.65;;;1.20;;
74503;SDS011;62988;55.776;37.544;2022-11-23T01:13:40;5.63;;;1.67;;
74503;SDS011;62988;55.776;37.544;2022-11-23T01:16:06;3.83;;;1.65;;
74503;SDS011;62988;55.776;37.544;2022-11-23T01:18:32;3.40;;;1.90;;
74503;SDS011;62988;55.776;37.544;2022-11-23T01:20:59;4.30;;;1.47;;
74503;SDS011;62988;55.776;37.544;2022-11-23T01:23:24;3.97;;;1.63;;
74503;SDS011;62988;55.776;37.544;2022-11-23T01:25:52;4.50;;;1.55;;
74503;SDS011;62988;55.776;37.544;2022-11-23T01:28:17;4.05;;;1.50;;
74503;SDS011;62988;55.776;37.544;2022-11-23T01:30:43;3.07;;;1.27;;
74503;SDS011;62988;55.776;37.544;2022-11-23T01:33:08;4.60;;;1.80;;
74503;SDS011;62988;55.776;37.544;2022-11-23T01:35:33;4.53;;;1.48;;
74503;SDS011;62988;55.776;37.544;2022-11-23T01:37:59;3.92;;;1.70;;
74503;SDS011;62988;55.776;37.544;2022-11-23T01:40:24;5.70;;;1.70;;
74503;SDS011;62988;55.776;37.544;2022-11-23T01:42:54;4.35;;;2.10;;
74503;SDS011;62988;55.776;37.544;2022-11-23T01:48:19;4.90;;;1.67;;
74503;SDS011;62988;55.776;37.544;2022-11-23T01:50:47;6.95;;;1.98;;
74503;SDS011;62988;55.776;37.544;2022-11-23T01:53:12;3.80;;;1.70;;
74503;SDS011;62988;55.776;37.544;2022-11-23T01:55:38;4.10;;;1.65;;
74503;SDS011;62988;55.776;37.544;2022-11-23T01:58:04;4.53;;;1.73;;
74503;SDS011;62988;55.776;37.544;2022-11-23T02:00:31;3.97;;;1.98;;
74503;SDS011;62988;55.776;37.544;2022-11-23T02:02:57;4.03;;;1.53;;
74503;SDS011;62988;55.776;37.544;2022-11-23T02:05:26;3.67;;;1.60;;
74503;SDS011;62988;55.776;37.544;2022-11-23T02:07:52;4.05;;;1.90;;
74503;SDS011;62988;55.776;37.544;2022-11-23T02:10:18;4.03;;;1.77;;
74503;SDS011;62988;55.776;37.544;2022-11-23T02:12:43;2.97;;;1.50;;
74503;SDS011;62988;55.776;37.544;2022-11-23T02:15:09;4.10;;;1.60;;
74503;SDS011;62988;55.776;37.544;2022-11-23T02:17:34;3.50;;;1.58;;
74503;SDS011;62988;55.776;37.544;2022-11-23T02:25:21;3.17;;;1.60;;
74503;SDS011;62988;55.776;37.544;2022-11-23T02:27:49;4.65;;;1.70;;
74503;SDS011;62988;55.776;37.544;2022-11-23T02:30:14;2.40;;;1.25;;
74503;SDS011;62988;55.776;37.544;2022-11-23T02:32:40;3.27;;;1.53;;
74503;SDS011;62988;55.776;37.544;2022-11-23T02:35:06;5.72;;;1.90;;
74503;SDS011;62988;55.776;37.544;2022-11-23T02:37:31;4.57;;;1.63;;
74503;SDS011;62988;55.776;37.544;2022-11-23T02:39:56;3.20;;;1.73;;
74503;SDS011;62988;55.776;37.544;2022-11-23T02:42:23;3.90;;;1.70;;
74503;SDS011;62988;55.776;37.544;2022-11-23T02:47:15;3.53;;;1.43;;
74503;SDS011;62988;55.776;37.544;2022-11-23T02:49:41;5.20;;;1.60;;
74503;SDS011;62988;55.776;37.544;2022-11-23T02:52:07;2.70;;;1.23;;
74503;SDS011;62988;55.776;37.544;2022-11-23T02:54:33;3.60;;;1.27;;
74503;SDS011;62988;55.776;37.544;2022-11-23T02:56:58;3.55;;;1.40;;
74503;SDS011;62988;55.776;37.544;2022-11-23T02:59:23;3.83;;;1.63;;
74503;SDS011;62988;55.776;37.544;2022-11-23T03:01:49;3.83;;;1.43;;
74503;SDS011;62988;55.776;37.544;2022-11-23T03:04:14;3.00;;;1.42;;
74503;SDS011;62988;55.776;37.544;2022-11-23T03:06:40;5.27;;;1.60;;
74503;SDS011;62988;55.776;37.544;2022-11-23T03:09:05;3.38;;;1.25;;
74503;SDS011;62988;55.776;37.544;2022-11-23T03:11:31;3.05;;;1.50;;
74503;SDS011;62988;55.776;37.544;2022-11-23T03:13:57;5.47;;;1.63;;
74503;SDS011;62988;55.776;37.544;2022-11-23T03:16:22;4.78;;;1.70;;
74503;SDS011;62988;55.776;37.544;2022-11-23T03:18:47;3.40;;;1.50;;
74503;SDS011;62988;55.776;37.544;2022-11-23T03:21:13;5.03;;;1.52;;
74503;SDS011;62988;55.776;37.544;2022-11-23T03:23:38;4.57;;;1.37;;
74503;SDS011;62988;55.776;37.544;2022-11-23T03:26:03;4.23;;;1.80;;
74503;SDS011;62988;55.776;37.544;2022-11-23T03:28:29;3.03;;;1.53;;
74503;SDS011;62988;55.776;37.544;2022-11-23T03:30:54;3.40;;;1.60;;
74503;SDS011;62988;55.776;37.544;2022-11-23T03:33:20;8.33;;;1.70;;
74503;SDS011;62988;55.776;37.544;2022-11-23T03:35:45;5.10;;;1.35;;
74503;SDS011;62988;55.776;37.544;2022-11-23T03:38:11;3.13;;;1.42;;
74503;SDS011;62988;55.776;37.544;2022-11-23T03:40:36;5.32;;;2.00;;
74503;SDS011;62988;55.776;37.544;2022-11-23T03:43:02;4.90;;;1.50;;
74503;SDS011;62988;55.776;37.544;2022-11-23T03:45:27;3.28;;;1.52;;
74503;SDS011;62988;55.776;37.544;2022-11-23T03:47:52;9.20;;;1.53;;
74503;SDS011;62988;55.776;37.544;2022-11-23T03:50:18;4.22;;;2.00;;
74503;SDS011;62988;55.776;37.544;2022-11-23T03:52:43;3.60;;;1.58;;
74503;SDS011;62988;55.776;37.544;2022-11-23T03:55:09;2.80;;;1.40;;
74503;SDS011;62988;55.776;37.544;2022-11-23T03:57:34;4.33;;;1.90;;
74503;SDS011;62988;55.776;37.544;2022-11-23T04:00:00;3.60;;;1.37;;
74503;SDS011;62988;55.776;37.544;2022-11-23T04:02:25;5.05;;;1.70;;
74503;SDS011;62988;55.776;37.544;2022-11-23T04:04:50;4.20;;;1.30;;
74503;SDS011;62988;55.776;37.544;2022-11-23T04:07:16;4.22;;;1.60;;
74503;SDS011;62988;55.776;37.544;2022-11-23T04:09:41;6.03;;;1.70;;
74503;SDS011;62988;55.776;37.544;2022-11-23T04:12:07;4.23;;;1.50;;
74503;SDS011;62988;55.776;37.544;2022-11-23T04:14:33;6.20;;;1.75;;
74503;SDS011;62988;55.776;37.544;2022-11-23T04:16:58;2.63;;;1.40;;
74503;SDS011;62988;55.776;37.544;2022-11-23T04:19:24;4.13;;;1.65;;
74503;SDS011;62988;55.776;37.544;2022-11-23T04:21:49;3.35;;;1.23;;
74503;SDS011;62988;55.776;37.544;2022-11-23T04:24:14;3.97;;;1.47;;
74503;SDS011;62988;55.776;37.544;2022-11-23T04:26:40;4.10;;;1.60;;
74503;SDS011;62988;55.776;37.544;2022-11-23T04:29:05;4.55;;;1.35;;
74503;SDS011;62988;55.776;37.544;2022-11-23T04:31:31;5.83;;;1.70;;
74503;SDS011;62988;55.776;37.544;2022-11-23T04:33:56;8.75;;;1.65;;
74503;SDS011;62988;55.776;37.544;2022-11-23T04:36:22;5.88;;;1.60;;
74503;SDS011;62988;55.776;37.544;2022-11-23T04:38:48;5.28;;;1.35;;
74503;SDS011;62988;55.776;37.544;2022-11-23T04:41:13;4.47;;;1.50;;
74503;SDS011;62988;55.776;37.544;2022-11-23T04:43:38;5.27;;;1.50;;
74503;SDS011;62988;55.776;37.544;2022-11-23T04:46:04;4.03;;;1.40;;
74503;SDS011;62988;55.776;37.544;2022-11-23T04:48:29;3.63;;;1.20;;
74503;SDS011;62988;55.776;37.544;2022-11-23T04:50:56;2.92;;;1.30;;
74503;SDS011;62988;55.776;37.544;2022-11-23T04:53:21;3.72;;;1.25;;
74503;SDS011;62988;55.776;37.544;2022-11-23T04:55:47;6.60;;;1.63;;
74503;SDS011;62988;55.776;37.544;2022-11-23T04:58:12;3.47;;;1.60;;
74503;SDS011;62988;55.776;37.544;2022-11-23T05:00:37;4.45;;;1.45;;
74503;SDS011;62988;55.776;37.544;2022-11-23T05:03:03;4.33;;;1.53;;
74503;SDS011;62988;55.776;37.544;2022-11-23T05:05:28;3.90;;;1.63;;
74503;SDS011;62988;55.776;37.544;2022-11-23T05:07:54;4.20;;;1.65;;
74503;SDS011;62988;55.776;37.544;2022-11-23T05:10:20;4.57;;;1.90;;
74503;SDS011;62988;55.776;37.544;2022-11-23T05:12:46;5.60;;;1.63;;
74503;SDS011;62988;55.776;37.544;2022-11-23T05:15:11;3.67;;;1.60;;
74503;SDS011;62988;55.776;37.544;2022-11-23T05:17:38;3.05;;;1.50;;
74503;SDS011;62988;55.776;37.544;2022-11-23T05:20:03;5.77;;;1.80;;
74503;SDS011;62988;55.776;37.544;2022-11-23T05:22:29;2.92;;;1.67;;
74503;SDS011;62988;55.776;37.544;2022-11-23T05:24:54;5.77;;;1.80;;
74503;SDS011;62988;55.776;37.544;2022-11-23T05:27:19;5.93;;;2.20;;
74503;SDS011;62988;55.776;37.544;2022-11-23T05:29:45;4.20;;;1.87;;
74503;SDS011;62988;55.776;37.544;2022-11-23T05:32:10;4.60;;;2.00;;
74503;SDS011;62988;55.776;37.544;2022-11-23T05:34:35;5.32;;;2.10;;
74503;SDS011;62988;55.776;37.544;2022-11-23T05:37:01;4.47;;;2.10;;
74503;SDS011;62988;55.776;37.544;2022-11-23T05:39:26;3.88;;;2.00;;
74503;SDS011;62988;55.776;37.544;2022-11-23T05:41:52;3.42;;;1.23;;
74503;SDS011;62988;55.776;37.544;2022-11-23T05:44:17;3.83;;;1.70;;
74503;SDS011;62988;55.776;37.544;2022-11-23T05:46:42;3.30;;;1.53;;
74503;SDS011;62988;55.776;37.544;2022-11-23T05:49:08;8.40;;;2.17;;
74503;SDS011;62988;55.776;37.544;2022-11-23T05:51:34;2.88;;;1.60;;
74503;SDS011;62988;55.776;37.544;2022-11-23T05:54:00;3.30;;;1.40;;
74503;SDS011;62988;55.776;37.544;2022-11-23T05:56:25;3.95;;;0.93;;
74503;SDS011;62988;55.776;37.544;2022-11-23T05:58:53;2.97;;;1.27;;
74503;SDS011;62988;55.776;37.544;2022-11-23T06:01:18;4.90;;;1.73;;
74503;SDS011;62988;55.776;37.544;2022-11-23T06:03:44;2.37;;;1.30;;
74503;SDS011;62988;55.776;37.544;2022-11-23T06:06:09;3.93;;;1.80;;
74503;SDS011;62988;55.776;37.544;2022-11-23T06:08:35;5.00;;;2.20;;
74503;SDS011;62988;55.776;37.544;2022-11-23T06:11:00;4.35;;;1.13;;
74503;SDS011;62988;55.776;37.544;2022-11-23T06:13:26;4.72;;;1.75;;
74503;SDS011;62988;55.776;37.544;2022-11-23T06:15:51;6.00;;;1.67;;
74503;SDS011;62988;55.776;37.544;2022-11-23T06:18:17;4.20;;;1.55;;
74503;SDS011;62988;55.776;37.544;2022-11-23T06:20:42;3.10;;;1.48;;
74503;SDS011;62988;55.776;37.544;2022-11-23T06:23:08;3.63;;;1.40;;
74503;SDS011;62988;55.776;37.544;2022-11-23T06:25:33;4.63;;;1.40;;
74503;SDS011;62988;55.776;37.544;2022-11-23T06:27:59;4.20;;;1.27;;
74503;SDS011;62988;55.776;37.544;2022-11-23T06:30:25;5.07;;;1.70;;
74503;SDS011;62988;55.776;37.544;2022-11-23T06:32:51;3.95;;;1.25;;
74503;SDS011;62988;55.776;37.544;2022-11-23T06:35:16;10.40;;;1.58;;
74503;SDS011;62988;55.776;37.544;2022-11-23T06:37:42;3.10;;;1.23;;
74503;SDS011;62988;55.776;37.544;2022-11-23T06:40:08;4.13;;;1.42;;
74503;SDS011;62988;55.776;37.544;2022-11-23T06:42:33;3.75;;;1.30;;
74503;SDS011;62988;55.776;37.544;2022-11-23T06:44:58;2.33;;;0.82;;
74503;SDS011;62988;55.776;37.544;2022-11-23T06:47:24;2.90;;;1.40;;
74503;SDS011;62988;55.776;37.544;2022-11-23T06:49:49;4.80;;;1.70;;
74503;SDS011;62988;55.776;37.544;2022-11-23T06:52:14;2.17;;;0.87;;
74503;SDS011;62988;55.776;37.544;2022-11-23T06:54:40;6.77;;;2.30;;
74503;SDS011;62988;55.776;37.544;2022-11-23T06:57:08;6.27;;;1.90;;
74503;SDS011;62988;55.776;37.544;2022-11-23T06:59:34;4.70;;;1.73;;
74503;SDS011;62988;55.776;37.544;2022-11-23T07:01:59;4.63;;;2.20;;
74503;SDS011;62988;55.776;37.544;2022-11-23T07:04:25;4.73;;;2.20;;
74503;SDS011;62988;55.776;37.544;2022-11-23T07:06:50;5.23;;;2.13;;
74503;SDS011;62988;55.776;37.544;2022-11-23T07:09:15;8.53;;;2.00;;
74503;SDS011;62988;55.776;37.544;2022-11-23T07:11:41;4.28;;;2.17;;
74503;SDS011;62988;55.776;37.544;2022-11-23T07:14:06;7.43;;;2.30;;
74503;SDS011;62988;55.776;37.544;2022-11-23T07:16:32;6.03;;;2.38;;
74503;SDS011;62988;55.776;37.544;2022-11-23T07:18:57;4.65;;;2.25;;
74503;SDS011;62988;55.776;37.544;2022-11-23T07:21:22;4.43;;;2.35;;
74503;SDS011;62988;55.776;37.544;2022-11-23T07:23:48;5.13;;;1.87;;
74503;SDS011;62988;55.776;37.544;2022-11-23T07:26:13;4.07;;;2.37;;
74503;SDS011;62988;55.776;37.544;2022-11-23T07:28:38;5.05;;;2.67;;
74503;SDS011;62988;55.776;37.544;2022-11-23T07:31:04;5.82;;;2.60;;
74503;SDS011;62988;55.776;37.544;2022-11-23T07:33:29;7.13;;;2.25;;
74503;SDS011;62988;55.776;37.544;2022-11-23T07:35:54;4.87;;;2.13;;
74503;SDS011;62988;55.776;37.544;2022-11-23T07:38:20;8.33;;;2.90;;
74503;SDS011;62988;55.776;37.544;2022-11-23T07:40:47;8.00;;;2.97;;
74503;SDS011;62988;55.776;37.544;2022-11-23T07:43:12;4.47;;;2.25;;
74503;SDS011;62988;55.776;37.544;2022-11-23T07:45:38;4.22;;;2.05;;
74503;SDS011;62988;55.776;37.544;2022-11-23T07:48:04;4.80;;;2.50;;
74503;SDS011;62988;55.776;37.544;2022-11-23T07:50:30;6.28;;;2.58;;
74503;SDS011;62988;55.776;37.544;2022-11-23T07:52:56;7.50;;;2.90;;
74503;SDS011;62988;55.776;37.544;2022-11-23T07:55:21;4.82;;;2.03;;
74503;SDS011;62988;55.776;37.544;2022-11-23T07:57:50;3.33;;;2.00;;
74503;SDS011;62988;55.776;37.544;2022-11-23T08:00:16;6.85;;;2.35;;
74503;SDS011;62988;55.776;37.544;2022-11-23T08:02:41;6.60;;;2.15;;
74503;SDS011;62988;55.776;37.544;2022-11-23T08:05:07;4.73;;;1.90;;
74503;SDS011;62988;55.776;37.544;2022-11-23T08:07:32;3.05;;;1.63;;
74503;SDS011;62988;55.776;37.544;2022-11-23T08:09:57;5.23;;;1.57;;
74503;SDS011;62988;55.776;37.544;2022-11-23T08:12:23;7.73;;;3.77;;
74503;SDS011;62988;55.776;37.544;2022-11-23T08:14:48;4.03;;;2.17;;
74503;SDS011;62988;55.776;37.544;2022-11-23T08:17:13;4.93;;;2.00;;
74503;SDS011;62988;55.776;37.544;2022-11-23T08:19:39;6.00;;;1.83;;
74503;SDS011;62988;55.776;37.544;2022-11-23T08:22:04;5.57;;;2.25;;
74503;SDS011;62988;55.776;37.544;2022-11-23T08:24:29;3.17;;;1.87;;
74503;SDS011;62988;55.776;37.544;2022-11-23T08:26:55;4.83;;;1.63;;
74503;SDS011;62988;55.776;37.544;2022-11-23T08:29:20;3.85;;;1.52;;
74503;SDS011;62988;55.776;37.544;2022-11-23T08:31:46;2.92;;;1.45;;
74503;SDS011;62988;55.776;37.544;2022-11-23T08:34:11;6.40;;;1.90;;
74503;SDS011;62988;55.776;37.544;2022-11-23T08:36:37;3.38;;;1.58;;
74503;SDS011;62988;55.776;37.544;2022-11-23T08:39:02;3.73;;;1.57;;
74503;SDS011;62988;55.776;37.544;2022-11-23T08:41:28;3.23;;;1.70;;
74503;SDS011;62988;55.776;37.544;2022-11-23T08:43:53;5.33;;;1.70;;
74503;SDS011;62988;55.776;37.544;2022-11-23T08:46:18;4.87;;;2.70;;
74503;SDS011;62988;55.776;37.544;2022-11-23T08:48:44;4.03;;;2.10;;
74503;SDS011;62988;55.776;37.544;2022-11-23T08:51:09;5.28;;;2.70;;
74503;SDS011;62988;55.776;37.544;2022-11-23T08:53:35;4.88;;;2.00;;
74503;SDS011;62988;55.776;37.544;2022-11-23T08:56:04;5.47;;;2.13;;
74503;SDS011;62988;55.776;37.544;2022-11-23T08:58:30;4.75;;;2.20;;
74503;SDS011;62988;55.776;37.544;2022-11-23T09:00:55;7.35;;;2.60;;
74503;SDS011;62988;55.776;37.544;2022-11-23T09:03:20;5.93;;;2.00;;
74503;SDS011;62988;55.776;37.544;2022-11-23T09:05:46;3.53;;;1.60;;
74503;SDS011;62988;55.776;37.544;2022-11-23T09:08:11;3.90;;;2.07;;
74503;SDS011;62988;55.776;37.544;2022-11-23T09:10:37;5.55;;;2.03;;
74503;SDS011;62988;55.776;37.544;2022-11-23T09:13:02;3.83;;;2.10;;
74503;SDS011;62988;55.776;37.544;2022-11-23T09:15:28;4.47;;;1.90;;
74503;SDS011;62988;55.776;37.544;2022-11-23T09:17:53;4.13;;;1.85;;
74503;SDS011;62988;55.776;37.544;2022-11-23T09:20:20;5.88;;;2.25;;
74503;SDS011;62988;55.776;37.544;2022-11-23T09:22:49;5.07;;;2.30;;
74503;SDS011;62988;55.776;37.544;2022-11-23T09:25:14;5.88;;;2.22;;
74503;SDS011;62988;55.776;37.544;2022-11-23T09:27:41;3.80;;;1.80;;
74503;SDS011;62988;55.776;37.544;2022-11-23T09:30:06;4.68;;;1.90;;
74503;SDS011;62988;55.776;37.544;2022-11-23T09:32:32;4.25;;;1.63;;
74503;SDS011;62988;55.776;37.544;2022-11-23T09:34:57;5.00;;;2.10;;
74503;SDS011;62988;55.776;37.544;2022-11-23T09:37:22;3.60;;;1.60;;
74503;SDS011;62988;55.776;37.544;2022-11-23T09:39:48;3.50;;;2.13;;
74503;SDS011;62988;55.776;37.544;2022-11-23T09:45:01;2.73;;;1.60;;
74503;SDS011;62988;55.776;37.544;2022-11-23T09:50:17;5.43;;;1.50;;
74503;SDS011;62988;55.776;37.544;2022-11-23T09:52:46;4.45;;;1.90;;
74503;SDS011;62988;55.776;37.544;2022-11-23T09:55:36;7.80;;;2.08;;
74503;SDS011;62988;55.776;37.544;2022-11-23T09:57:59;4.25;;;1.75;;
74503;SDS011;62988;55.776;37.544;2022-11-23T10:00:26;3.00;;;1.63;;
74503;SDS011;62988;55.776;37.544;2022-11-23T10:02:54;2.55;;;1.30;;
74503;SDS011;62988;55.776;37.544;2022-11-23T10:05:21;5.00;;;2.57;;
74503;SDS011;62988;55.776;37.544;2022-11-23T10:23:11;4.45;;;1.90;;
74503;SDS011;62988;55.776;37.544;2022-11-23T10:25:39;4.78;;;2.10;;
74503;SDS011;62988;55.776;37.544;2022-11-23T10:28:10;4.43;;;1.98;;
74503;SDS011;62988;55.776;37.544;2022-11-23T10:33:10;4.17;;;1.60;;
74503;SDS011;62988;55.776;37.544;2022-11-23T10:35:40;5.00;;;2.13;;
74503;SDS011;62988;55.776;37.544;2022-11-23T10:40:37;3.80;;;1.52;;
74503;SDS011;62988;55.776;37.544;2022-11-23T10:43:15;8.05;;;2.30;;
74503;SDS011;62988;55.776;37.544;2022-11-23T10:45:41;3.20;;;1.67;;
74503;SDS011;62988;55.776;37.544;2022-11-23T10:48:06;7.88;;;1.75;;
74503;SDS011;62988;55.776;37.544;2022-11-23T10:50:37;6.63;;;2.53;;
74503;SDS011;62988;55.776;37.544;2022-11-23T10:55:31;3.37;;;2.00;;
74503;SDS011;62988;55.776;37.544;2022-11-23T10:57:58;6.18;;;2.30;;
74503;SDS011;62988;55.776;37.544;2022-11-23T11:00:24;6.32;;;2.25;;
74503;SDS011;62988;55.776;37.544;2022-11-23T11:02:52;7.45;;;2.05;;
74503;SDS011;62988;55.776;37.544;2022-11-23T11:07:56;4.07;;;2.03;;
74503;SDS011;62988;55.776;37.544;2022-11-23T11:12:57;4.15;;;1.92;;
74503;SDS011;62988;55.776;37.544;2022-11-23T11:15:22;4.27;;;2.43;;
74503;SDS011;62988;55.776;37.544;2022-11-23T11:17:55;3.00;;;1.50;;
74503;SDS011;62988;55.776;37.544;2022-11-23T11:22:46;3.33;;;1.52;;
74503;SDS011;62988;55.776;37.544;2022-11-23T11:25:25;4.10;;;2.10;;
74503;SDS011;62988;55.776;37.544;2022-11-23T11:27:51;3.63;;;1.58;;
74503;SDS011;62988;55.776;37.544;2022-11-23T11:30:21;2.73;;;1.10;;
74503;SDS011;62988;55.776;37.544;2022-11-23T11:33:35;6.20;;;2.00;;
74503;SDS011;62988;55.776;37.544;2022-11-23T11:35:36;5.60;;;2.03;;
74503;SDS011;62988;55.776;37.544;2022-11-23T11:38:07;4.85;;;1.85;;
74503;SDS011;62988;55.776;37.544;2022-11-23T11:40:36;5.30;;;1.88;;
74503;SDS011;62988;55.776;37.544;2022-11-23T11:45:32;4.53;;;1.97;;
74503;SDS011;62988;55.776;37.544;2022-11-23T11:48:20;3.95;;;1.83;;
74503;SDS011;62988;55.776;37.544;2022-11-23T11:50:49;5.20;;;1.58;;
74503;SDS011;62988;55.776;37.544;2022-11-23T11:53:17;4.90;;;2.00;;
74503;SDS011;62988;55.776;37.544;2022-11-23T11:58:26;8.07;;;2.22;;
74503;SDS011;62988;55.776;37.544;2022-11-23T12:01:12;8.90;;;2.83;;
74503;SDS011;62988;55.776;37.544;2022-11-23T12:03:40;4.47;;;2.38;;
74503;SDS011;62988;55.776;37.544;2022-11-23T12:06:14;4.68;;;2.15;;
74503;SDS011;62988;55.776;37.544;2022-11-23T12:11:07;4.27;;;2.40;;
74503;SDS011;62988;55.776;37.544;2022-11-23T12:13:34;7.55;;;2.40;;
74503;SDS011;62988;55.776;37.544;2022-11-23T12:16:09;8.25;;;2.65;;
74503;SDS011;62988;55.776;37.544;2022-11-23T12:18:41;4.97;;;2.65;;
74503;SDS011;62988;55.776;37.544;2022-11-23T12:26:39;5.63;;;2.45;;
74503;SDS011;62988;55.776;37.544;2022-11-23T12:29:15;4.28;;;2.63;;
74503;SDS011;62988;55.776;37.544;2022-11-23T12:31:42;4.90;;;2.08;;
74503;SDS011;62988;55.776;37.544;2022-11-23T12:36:56;9.02;;;2.40;;
74503;SDS011;62988;55.776;37.544;2022-11-23T12:39:43;6.75;;;2.33;;
74503;SDS011;62988;55.776;37.544;2022-11-23T12:42:24;8.63;;;3.90;;
74503;SDS011;62988;55.776;37.544;2022-11-23T12:45:01;4.13;;;2.33;;
74503;SDS011;62988;55.776;37.544;2022-11-23T12:50:05;5.27;;;2.40;;
74503;SDS011;62988;55.776;37.544;2022-11-23T13:00:18;3.50;;;1.98;;
74503;SDS011;62988;55.776;37.544;2022-11-23T13:10:50;8.27;;;2.85;;
74503;SDS011;62988;55.776;37.544;2022-11-23T13:18:47;3.63;;;1.80;;
74503;SDS011;62988;55.776;37.544;2022-11-23T13:23:48;6.05;;;1.92;;
74503;SDS011;62988;55.776;37.544;2022-11-23T13:26:18;6.20;;;2.25;;
74503;SDS011;62988;55.776;37.544;2022-11-23T13:28:47;5.85;;;2.47;;
74503;SDS011;62988;55.776;37.544;2022-11-23T13:33:39;3.50;;;2.37;;
74503;SDS011;62988;55.776;37.544;2022-11-23T13:36:04;4.28;;;2.25;;
74503;SDS011;62988;55.776;37.544;2022-11-23T13:38:37;3.55;;;2.13;;
74503;SDS011;62988;55.776;37.544;2022-11-23T13:41:03;3.83;;;2.13;;
74503;SDS011;62988;55.776;37.544;2022-11-23T13:43:29;3.70;;;2.17;;
74503;SDS011;62988;55.776;37.544;2022-11-23T13:48:43;6.65;;;2.08;;
74503;SDS011;62988;55.776;37.544;2022-11-23T13:51:08;4.15;;;2.35;;
74503;SDS011;62988;55.776;37.544;2022-11-23T13:53:35;3.50;;;1.77;;
74503;SDS011;62988;55.776;37.544;2022-11-23T13:56:20;3.42;;;1.90;;
74503;SDS011;62988;55.776;37.544;2022-11-23T13:58:58;3.22;;;1.48;;
74503;SDS011;62988;55.776;37.544;2022-11-23T14:04:22;5.03;;;2.60;;
74503;SDS011;62988;55.776;37.544;2022-11-23T14:06:49;3.95;;;1.85;;
74503;SDS011;62988;55.776;37.544;2022-11-23T14:09:43;3.92;;;1.73;;
74503;SDS011;62988;55.776;37.544;2022-11-23T14:17:18;5.07;;;2.75;;
74503;SDS011;62988;55.776;37.544;2022-11-23T14:30:02;4.50;;;2.03;;
74503;SDS011;62988;55.776;37.544;2022-11-23T14:32:46;4.20;;;2.08;;
74503;SDS011;62988;55.776;37.544;2022-11-23T14:35:19;5.35;;;1.88;;
74503;SDS011;62988;55.776;37.544;2022-11-23T14:40:20;4.80;;;2.47;;
74503;SDS011;62988;55.776;37.544;2022-11-23T14:42:50;5.53;;;2.15;;
74503;SDS011;62988;55.776;37.544;2022-11-23T14:45:16;6.43;;;2.25;;
74503;SDS011;62988;55.776;37.544;2022-11-23T14:47:43;4.57;;;2.10;;
74503;SDS011;62988;55.776;37.544;2022-11-23T14:50:42;4.33;;;2.30;;
74503;SDS011;62988;55.776;37.544;2022-11-23T14:53:00;7.60;;;2.63;;
74503;SDS011;62988;55.776;37.544;2022-11-23T14:55:26;5.57;;;2.47;;
74503;SDS011;62988;55.776;37.544;2022-11-23T14:57:56;3.53;;;1.55;;
74503;SDS011;62988;55.776;37.544;2022-11-23T15:02:51;5.60;;;2.33;;
74503;SDS011;62988;55.776;37.544;2022-11-23T15:05:21;7.80;;;2.63;;
74503;SDS011;62988;55.776;37.544;2022-11-23T15:07:52;4.97;;;2.63;;
74503;SDS011;62988;55.776;37.544;2022-11-23T15:10:33;6.38;;;2.85;;
74503;SDS011;62988;55.776;37.544;2022-11-23T15:13:02;5.65;;;2.42;;
74503;SDS011;62988;55.776;37.544;2022-11-23T15:15:43;2.05;;;1.15;;
74503;SDS011;62988;55.776;37.544;2022-11-23T15:18:09;5.18;;;2.42;;
74503;SDS011;62988;55.776;37.544;2022-11-23T15:20:43;5.82;;;2.85;;
74503;SDS011;62988;55.776;37.544;2022-11-23T15:23:21;4.55;;;2.38;;
74503;SDS011;62988;55.776;37.544;2022-11-23T15:25:50;4.72;;;2.40;;
74503;SDS011;62988;55.776;37.544;2022-11-23T15:28:16;3.80;;;2.25;;
74503;SDS011;62988;55.776;37.544;2022-11-23T15:30:42;3.97;;;2.20;;
74503;SDS011;62988;55.776;37.544;2022-11-23T15:33:08;5.97;;;2.30;;
74503;SDS011;62988;55.776;37.544;2022-11-23T15:35:36;5.32;;;2.22;;
74503;SDS011;62988;55.776;37.544;2022-11-23T15:38:02;8.60;;;2.20;;
74503;SDS011;62988;55.776;37.544;2022-11-23T15:40:32;4.95;;;2.60;;
74503;SDS011;62988;55.776;37.544;2022-11-23T15:42:59;5.82;;;2.22;;
74503;SDS011;62988;55.776;37.544;2022-11-23T15:48:15;4.88;;;2.95;;
74503;SDS011;62988;55.776;37.544;2022-11-23T15:50:50;6.45;;;2.72;;
74503;SDS011;62988;55.776;37.544;2022-11-23T15:53:15;5.35;;;2.70;;
74503;SDS011;62988;55.776;37.544;2022-11-23T15:55:41;5.82;;;2.97;;
74503;SDS011;62988;55.776;37.544;2022-11-23T15:58:07;8.40;;;3.47;;
74503;SDS011;62988;55.776;37.544;2022-11-23T16:00:34;5.35;;;3.83;;
74503;SDS011;62988;55.776;37.544;2022-11-23T16:05:44;5.53;;;2.75;;
74503;SDS011;62988;55.776;37.544;2022-11-23T16:08:22;4.00;;;2.63;;
74503;SDS011;62988;55.776;37.544;2022-11-23T16:10:52;4.95;;;2.55;;
74503;SDS011;62988;55.776;37.544;2022-11-23T16:13:32;7.80;;;2.90;;
74503;SDS011;62988;55.776;37.544;2022-11-23T16:15:58;6.30;;;2.70;;
74503;SDS011;62988;55.776;37.544;2022-11-23T16:18:24;7.38;;;3.35;;
74503;SDS011;62988;55.776;37.544;2022-11-23T16:23:21;5.82;;;3.10;;
74503;SDS011;62988;55.776;37.544;2022-11-23T16:25:55;11.23;;;3.40;;
74503;SDS011;62988;55.776;37.544;2022-11-23T16:28:30;5.07;;;2.90;;
74503;SDS011;62988;55.776;37.544;2022-11-23T16:30:57;5.45;;;3.08;;
74503;SDS011;62988;55.776;37.544;2022-11-23T16:33:22;5.43;;;3.25;;
74503;SDS011;62988;55.776;37.544;2022-11-23T16:35:48;6.18;;;3.40;;
74503;SDS011;62988;55.776;37.544;2022-11-23T16:38:13;7.15;;;3.63;;